Time;durP1;ratioP1;P1;durP2;ratioP2;P2;SDS_P1;SDS_P2;PMS_P1;PMS_P2;Temp;Humidity;BMP_temperature;BMP_pressure;BME280_temperature;BME280_humidity;BME280_pressure;Samples;Min_cycle;Max_cycle;Signal;HPM_P1;HPM_P2
2023/12/14 00:01:14;;;;;;;7.50;1.75;;;10.20;99.90;;;;;;5030441;28;20029;-93
2023/12/14 00:03:46;;;;;;;7.20;1.33;;;9.50;99.90;;;;;;5030298;28;20436;-85
2023/12/14 00:06:13;;;;;;;6.45;1.58;;;9.30;99.90;;;;;;5030254;28;20486;-90
2023/12/14 00:08:38;;;;;;;2.28;1.40;;;9.00;99.90;;;;;;5030238;28;20029;-90
2023/12/14 00:11:09;;;;;;;6.22;1.60;;;8.30;99.90;;;;;;5030053;28;20116;-87
2023/12/14 00:13:35;;;;;;;3.85;1.52;;;8.70;99.90;;;;;;5031340;28;20061;-85
2023/12/14 00:16:01;;;;;;;6.72;1.30;;;9.10;99.90;;;;;;5025371;28;20040;-86
2023/12/14 00:18:27;;;;;;;4.10;1.60;;;9.30;99.90;;;;;;5023685;28;20547;-90
2023/12/14 00:20:53;;;;;;;4.05;1.38;;;9.80;99.90;;;;;;5007010;28;20057;-89
2023/12/14 00:23:19;;;;;;;4.57;1.50;;;8.60;99.90;;;;;;5029799;28;20108;-85
2023/12/14 00:25:45;;;;;;;5.13;1.70;;;8.60;99.90;;;;;;5009751;28;20080;-84
2023/12/14 00:28:11;;;;;;;7.60;1.50;;;9.70;99.90;;;;;;5024584;28;20033;-90
2023/12/14 00:30:37;;;;;;;8.40;1.63;;;8.40;99.90;;;;;;5026202;28;20021;-89
2023/12/14 00:33:03;;;;;;;5.63;1.65;;;8.60;99.90;;;;;;5024604;28;20052;-91
2023/12/14 00:35:28;;;;;;;2.85;1.40;;;8.40;99.90;;;;;;5029831;28;20021;-85
2023/12/14 00:37:54;;;;;;;4.90;1.42;;;8.90;99.90;;;;;;5029203;28;20055;-85
2023/12/14 00:40:19;;;;;;;3.38;1.70;;;8.40;99.90;;;;;;5029149;28;20060;-85
2023/12/14 00:42:45;;;;;;;17.40;2.00;;;8.60;99.90;;;;;;5029628;28;20029;-85
2023/12/14 00:45:10;;;;;;;7.40;1.98;;;9.30;99.90;;;;;;5029293;28;20022;-86
2023/12/14 00:47:36;;;;;;;3.60;1.40;;;8.90;99.90;;;;;;5029432;28;20425;-89
2023/12/14 00:50:02;;;;;;;5.50;1.90;;;9.70;99.90;;;;;;5030132;28;20045;-85
2023/12/14 00:52:28;;;;;;;6.05;1.67;;;8.50;99.90;;;;;;5029496;28;20493;-86
2023/12/14 00:54:53;;;;;;;3.40;1.38;;;9.40;99.90;;;;;;5011402;28;20413;-85
2023/12/14 00:57:19;;;;;;;4.13;1.60;;;8.70;99.90;;;;;;5011429;28;20485;-85
2023/12/14 00:59:44;;;;;;;3.70;1.38;;;10.30;99.90;;;;;;5029057;28;20026;-86
2023/12/14 01:02:10;;;;;;;6.22;1.50;;;8.50;99.90;;;;;;5029108;28;20064;-86
2023/12/14 01:04:36;;;;;;;5.68;1.75;;;8.40;99.90;;;;;;5028953;28;20437;-87
2023/12/14 01:07:01;;;;;;;3.88;1.30;;;9.00;99.90;;;;;;5029925;28;20170;-87
2023/12/14 01:09:27;;;;;;;6.72;1.50;;;8.70;99.90;;;;;;5028988;28;20025;-90
2023/12/14 01:11:52;;;;;;;3.35;1.58;;;9.10;99.90;;;;;;5011345;28;20033;-91
2023/12/14 01:14:18;;;;;;;4.03;1.42;;;8.40;99.90;;;;;;5029148;28;20052;-86
2023/12/14 01:16:44;;;;;;;3.58;1.40;;;8.80;99.90;;;;;;5029067;28;20026;-85
2023/12/14 01:19:09;;;;;;;6.15;1.73;;;8.50;99.90;;;;;;5011492;28;20025;-89
2023/12/14 01:21:35;;;;;;;3.47;1.20;;;9.30;99.90;;;;;;5029476;28;20033;-86
2023/12/14 01:24:01;;;;;;;8.32;1.70;;;8.70;99.90;;;;;;5012186;28;20042;-85
2023/12/14 01:26:27;;;;;;;2.05;1.13;;;8.60;99.90;;;;;;5029047;28;20075;-85
2023/12/14 01:28:53;;;;;;;2.92;1.50;;;8.70;99.90;;;;;;5028965;28;20100;-91
2023/12/14 01:31:18;;;;;;;4.65;1.75;;;8.60;99.90;;;;;;5028586;28;20120;-85
2023/12/14 01:33:45;;;;;;;4.43;1.58;;;10.40;99.90;;;;;;5028975;28;20032;-85
2023/12/14 01:36:11;;;;;;;6.10;1.50;;;10.10;99.90;;;;;;5029077;28;20104;-88
2023/12/14 01:38:37;;;;;;;3.85;1.55;;;9.70;99.90;;;;;;5028748;28;20168;-84
2023/12/14 01:41:03;;;;;;;5.93;1.60;;;9.70;99.90;;;;;;5019717;28;20398;-85
2023/12/14 01:43:29;;;;;;;3.65;1.42;;;8.30;99.90;;;;;;4991566;28;20029;-85
2023/12/14 01:45:54;;;;;;;4.38;1.50;;;9.10;99.90;;;;;;4991486;28;20026;-85
2023/12/14 01:48:21;;;;;;;6.90;1.70;;;9.90;99.90;;;;;;5009158;28;20109;-87
2023/12/14 01:50:46;;;;;;;3.05;1.42;;;8.70;99.90;;;;;;5021603;28;20465;-91
2023/12/14 01:53:12;;;;;;;3.33;1.40;;;8.50;99.90;;;;;;5032693;28;20029;-88
2023/12/14 01:55:38;;;;;;;6.28;1.38;;;9.80;99.90;;;;;;5033298;28;20065;-86
2023/12/14 01:58:03;;;;;;;3.10;1.30;;;9.80;99.90;;;;;;5033412;28;20030;-90
2023/12/14 02:00:34;;;;;;;4.15;1.50;;;9.70;99.90;;;;;;5032232;28;20041;-90
2023/12/14 02:02:59;;;;;;;1.75;1.20;;;9.50;99.90;;;;;;5032653;28;20022;-89
2023/12/14 02:05:25;;;;;;;3.00;1.70;;;8.60;99.90;;;;;;5032505;28;20021;-85
2023/12/14 02:07:51;;;;;;;5.72;1.48;;;7.90;99.90;;;;;;5032470;28;20026;-85
2023/12/14 02:10:16;;;;;;;2.95;1.40;;;9.10;99.90;;;;;;5032161;28;20051;-86
2023/12/14 02:12:42;;;;;;;4.13;1.50;;;9.50;99.90;;;;;;5032536;28;20460;-86
2023/12/14 02:15:08;;;;;;;3.65;1.58;;;9.40;99.90;;;;;;5033172;28;20037;-86
2023/12/14 02:17:34;;;;;;;3.03;1.50;;;7.60;99.90;;;;;;5014912;28;20108;-86
2023/12/14 02:20:00;;;;;;;3.50;1.40;;;7.60;99.90;;;;;;5030779;28;20129;-88
2023/12/14 02:22:26;;;;;;;2.85;1.25;;;8.00;99.90;;;;;;4999557;28;20117;-86
2023/12/14 02:24:52;;;;;;;1.42;1.33;;;8.00;99.90;;;;;;5031903;28;20040;-86
2023/12/14 02:27:17;;;;;;;4.18;1.30;;;8.10;99.90;;;;;;5045646;28;20025;-85
2023/12/14 02:29:43;;;;;;;3.13;1.40;;;8.30;99.90;;;;;;5054545;28;20025;-86
2023/12/14 02:32:08;;;;;;;2.78;1.52;;;7.70;99.90;;;;;;5041378;28;20090;-86
2023/12/14 02:34:34;;;;;;;6.03;1.40;;;7.40;99.90;;;;;;5035815;28;20030;-87
2023/12/14 02:37:00;;;;;;;4.22;1.60;;;8.00;99.90;;;;;;5035186;28;20464;-85
2023/12/14 02:39:25;;;;;;;3.45;1.50;;;8.80;99.90;;;;;;5031826;28;20063;-86
2023/12/14 02:41:51;;;;;;;2.55;1.60;;;7.20;99.90;;;;;;5031884;28;20033;-86
2023/12/14 02:44:16;;;;;;;9.25;1.50;;;7.10;99.90;;;;;;5020086;28;20565;-91
2023/12/14 02:46:43;;;;;;;4.03;2.00;;;7.70;99.90;;;;;;5033697;28;20025;-85
2023/12/14 02:49:09;;;;;;;1.50;1.10;;;7.40;99.90;;;;;;5052445;28;20039;-86
2023/12/14 02:51:34;;;;;;;3.72;1.50;;;7.50;99.90;;;;;;5051473;28;20048;-87
2023/12/14 02:54:00;;;;;;;4.28;1.73;;;8.20;99.90;;;;;;5051510;28;20237;-86
2023/12/14 02:56:25;;;;;;;5.80;1.63;;;7.40;99.90;;;;;;5033654;28;20581;-85
2023/12/14 02:58:53;;;;;;;4.18;1.70;;;9.10;99.90;;;;;;5031356;28;20386;-85
2023/12/14 03:01:21;;;;;;;2.83;1.50;;;8.00;99.90;;;;;;5031212;28;20052;-86
2023/12/14 03:03:47;;;;;;;3.72;1.73;;;7.90;99.90;;;;;;5031236;28;20764;-90
2023/12/14 03:06:12;;;;;;;4.43;1.55;;;8.40;99.90;;;;;;5031116;28;20036;-85
2023/12/14 03:08:38;;;;;;;4.60;1.73;;;7.20;99.90;;;;;;5032064;28;20029;-86
2023/12/14 03:11:04;;;;;;;4.55;1.42;;;7.30;99.90;;;;;;5031264;28;20029;-87
2023/12/14 03:13:29;;;;;;;5.97;1.58;;;7.30;99.90;;;;;;5030651;28;20029;-86
2023/12/14 03:15:55;;;;;;;4.97;1.35;;;7.60;99.90;;;;;;5031206;28;20543;-85
2023/12/14 03:18:20;;;;;;;7.13;1.60;;;7.40;99.90;;;;;;5031107;28;20033;-85
2023/12/14 03:20:46;;;;;;;1.48;1.25;;;7.60;99.90;;;;;;5013439;28;20036;-87
2023/12/14 03:23:12;;;;;;;2.83;1.52;;;7.00;99.90;;;;;;5013591;28;20115;-86
2023/12/14 03:25:38;;;;;;;4.07;1.92;;;7.10;99.90;;;;;;5031735;28;20033;-86
2023/12/14 03:28:03;;;;;;;4.05;1.40;;;7.00;99.90;;;;;;5030573;28;20036;-85
2023/12/14 03:30:29;;;;;;;3.65;1.60;;;6.90;99.90;;;;;;5030927;28;20028;-90
2023/12/14 03:32:54;;;;;;;5.20;1.75;;;6.90;99.90;;;;;;5030218;28;20041;-86
2023/12/14 03:35:20;;;;;;;3.33;1.60;;;8.20;99.90;;;;;;5014425;28;20030;-92
2023/12/14 03:37:45;;;;;;;3.97;1.58;;;6.80;99.90;;;;;;5011009;28;20046;-86
2023/12/14 03:40:11;;;;;;;3.25;1.40;;;7.90;99.90;;;;;;5011917;28;20026;-91
2023/12/14 03:42:37;;;;;;;4.75;1.80;;;7.00;99.90;;;;;;5020945;28;20030;-88
2023/12/14 03:45:02;;;;;;;2.47;1.67;;;8.00;99.90;;;;;;5030585;28;20033;-85
2023/12/14 03:47:28;;;;;;;2.78;1.73;;;7.00;99.90;;;;;;5030562;28;20071;-90
2023/12/14 03:49:54;;;;;;;7.20;1.77;;;7.30;99.90;;;;;;5030593;28;20079;-90
2023/12/14 03:52:19;;;;;;;7.13;1.77;;;8.40;99.90;;;;;;5030295;28;20033;-90
2023/12/14 03:54:45;;;;;;;5.65;1.60;;;7.00;99.90;;;;;;5030409;28;20111;-85
2023/12/14 03:57:10;;;;;;;5.43;1.42;;;6.80;99.90;;;;;;5031145;28;20025;-93
2023/12/14 03:59:40;;;;;;;7.28;1.70;;;7.80;99.90;;;;;;5030268;28;20063;-90
2023/12/14 04:02:05;;;;;;;3.28;1.42;;;9.10;99.90;;;;;;5030038;28;20034;-86
2023/12/14 04:04:31;;;;;;;4.03;1.73;;;6.90;99.90;;;;;;5030113;28;20028;-88
2023/12/14 04:06:56;;;;;;;4.22;1.50;;;7.10;99.90;;;;;;5012360;28;20026;-87
2023/12/14 04:09:22;;;;;;;6.55;1.30;;;6.70;99.90;;;;;;5030001;28;20021;-91
2023/12/14 04:11:48;;;;;;;4.35;1.65;;;8.10;99.90;;;;;;5029533;28;20033;-85
2023/12/14 04:14:13;;;;;;;4.43;1.90;;;6.60;99.90;;;;;;5030747;28;20022;-86
2023/12/14 04:16:39;;;;;;;7.30;1.92;;;7.70;99.90;;;;;;5012436;28;20425;-86
2023/12/14 04:19:09;;;;;;;2.20;1.60;;;6.70;99.90;;;;;;5029790;28;20113;-85
2023/12/14 04:21:35;;;;;;;4.95;1.70;;;8.00;99.90;;;;;;5030032;28;20390;-86
2023/12/14 04:24:01;;;;;;;1.98;1.50;;;6.90;99.90;;;;;;5029670;28;20030;-86
2023/12/14 04:26:27;;;;;;;6.25;1.80;;;7.70;99.90;;;;;;5030073;28;20100;-85
2023/12/14 04:28:53;;;;;;;5.78;1.50;;;6.90;99.90;;;;;;5029974;28;20022;-85
2023/12/14 04:31:19;;;;;;;4.72;1.70;;;6.90;99.90;;;;;;5030112;28;20430;-84
2023/12/14 04:33:44;;;;;;;4.00;1.42;;;7.30;99.90;;;;;;5030010;28;20060;-84
2023/12/14 04:36:10;;;;;;;2.92;1.75;;;6.90;99.90;;;;;;5027826;28;20057;-84
2023/12/14 04:38:35;;;;;;;3.20;1.40;;;6.90;99.90;;;;;;5026377;28;20475;-85
2023/12/14 04:41:01;;;;;;;3.72;1.70;;;8.20;99.90;;;;;;5028245;28;20021;-84
2023/12/14 04:43:29;;;;;;;5.80;1.92;;;6.90;99.90;;;;;;5010407;28;20037;-86
2023/12/14 04:45:55;;;;;;;6.47;1.83;;;6.40;99.90;;;;;;5011388;28;20438;-89
2023/12/14 04:48:21;;;;;;;4.07;1.70;;;6.40;99.90;;;;;;5029274;28;20559;-86
2023/12/14 04:50:46;;;;;;;7.32;2.00;;;6.40;99.90;;;;;;5029483;28;20397;-87
2023/12/14 04:53:12;;;;;;;8.50;1.88;;;7.10;99.90;;;;;;5029074;28;20029;-85
2023/12/14 04:55:38;;;;;;;5.60;1.73;;;6.50;99.90;;;;;;5017849;28;20056;-87
2023/12/14 04:58:03;;;;;;;3.13;1.55;;;6.50;99.90;;;;;;5028455;28;20041;-84
2023/12/14 05:00:29;;;;;;;7.45;1.80;;;6.60;99.90;;;;;;5028554;28;20052;-84
2023/12/14 05:02:54;;;;;;;2.63;1.67;;;6.80;99.90;;;;;;5009664;28;20017;-84
2023/12/14 05:05:20;;;;;;;6.43;1.73;;;9.00;99.90;;;;;;5018911;28;20104;-85
2023/12/14 05:07:45;;;;;;;3.85;1.60;;;7.40;99.90;;;;;;5028711;28;20030;-87
2023/12/14 05:10:11;;;;;;;4.20;1.70;;;6.60;99.90;;;;;;5028536;28;20401;-85
2023/12/14 05:12:37;;;;;;;5.85;2.08;;;6.40;99.90;;;;;;5029320;28;20033;-84
2023/12/14 05:15:07;;;;;;;7.07;1.63;;;6.80;99.90;;;;;;5025305;28;20037;-86
2023/12/14 05:17:34;;;;;;;4.10;1.60;;;6.60;99.90;;;;;;5029274;28;20056;-85
2023/12/14 05:20:00;;;;;;;4.22;1.80;;;6.60;99.90;;;;;;5028138;28;20018;-86
2023/12/14 05:22:25;;;;;;;4.38;1.67;;;7.20;99.90;;;;;;5028841;28;20378;-84
2023/12/14 05:24:51;;;;;;;3.50;1.80;;;7.90;99.90;;;;;;5030493;28;20033;-85
2023/12/14 05:27:16;;;;;;;3.53;1.70;;;6.80;99.90;;;;;;5017392;28;20037;-87
2023/12/14 05:29:42;;;;;;;2.85;1.50;;;7.20;99.90;;;;;;5013396;28;20477;-85
2023/12/14 05:32:07;;;;;;;2.97;1.65;;;6.50;99.90;;;;;;5013727;28;20018;-85
2023/12/14 05:34:33;;;;;;;5.70;1.90;;;8.00;99.90;;;;;;5027089;28;20033;-84
2023/12/14 05:37:07;;;;;;;3.55;1.80;;;6.70;99.90;;;;;;5034604;28;20029;-86
2023/12/14 05:39:33;;;;;;;3.13;1.75;;;8.60;99.90;;;;;;5033338;28;20030;-84
2023/12/14 05:41:59;;;;;;;6.30;2.00;;;6.40;99.90;;;;;;5033249;28;20500;-84
2023/12/14 05:44:25;;;;;;;3.63;1.50;;;6.70;99.90;;;;;;5032616;28;20032;-84
2023/12/14 05:46:50;;;;;;;3.17;1.80;;;6.90;99.90;;;;;;5021934;28;20068;-84
2023/12/14 05:49:16;;;;;;;4.30;1.85;;;6.90;99.90;;;;;;5016275;28;20485;-84
2023/12/14 05:51:42;;;;;;;6.10;2.13;;;6.60;99.90;;;;;;5035609;28;20432;-84
2023/12/14 05:54:07;;;;;;;4.05;1.88;;;6.50;99.90;;;;;;5036602;28;20018;-85
2023/12/14 05:56:33;;;;;;;4.93;1.88;;;7.00;99.90;;;;;;5038273;28;20037;-85
2023/12/14 05:58:59;;;;;;;8.18;2.28;;;6.70;99.90;;;;;;5036171;28;20041;-85
2023/12/14 06:01:25;;;;;;;5.60;2.78;;;6.60;99.90;;;;;;5039151;28;20032;-84
2023/12/14 06:03:50;;;;;;;3.75;2.10;;;6.70;99.90;;;;;;5033779;28;20029;-84
2023/12/14 06:06:16;;;;;;;3.88;2.10;;;6.90;99.90;;;;;;5044875;28;20025;-89
2023/12/14 06:08:42;;;;;;;5.30;3.20;;;8.10;99.90;;;;;;5040252;28;20022;-85
2023/12/14 06:11:08;;;;;;;12.00;6.20;;;7.30;99.90;;;;;;5038411;28;20086;-85
2023/12/14 06:13:34;;;;;;;9.73;5.20;;;6.70;99.90;;;;;;5039587;28;20021;-85
2023/12/14 06:15:59;;;;;;;6.15;4.15;;;7.20;99.90;;;;;;5031514;28;20032;-85
2023/12/14 06:18:25;;;;;;;4.13;2.90;;;8.80;99.90;;;;;;5032051;28;20041;-86
2023/12/14 06:20:51;;;;;;;10.60;2.90;;;7.30;99.90;;;;;;5032830;28;20049;-85
2023/12/14 06:23:17;;;;;;;6.63;2.80;;;6.90;99.90;;;;;;5032923;28;20151;-85
2023/12/14 06:25:43;;;;;;;4.50;3.10;;;6.90;99.90;;;;;;5031795;28;20033;-85
2023/12/14 06:28:09;;;;;;;7.28;3.80;;;6.90;99.90;;;;;;5031970;28;20024;-88
2023/12/14 06:30:34;;;;;;;9.20;3.50;;;8.40;99.90;;;;;;5014233;28;20032;-84
2023/12/14 06:33:00;;;;;;;6.18;3.40;;;8.40;99.90;;;;;;5031835;28;20030;-85
2023/12/14 06:35:25;;;;;;;7.20;3.75;;;6.70;99.90;;;;;;5031198;28;20033;-85
2023/12/14 06:37:51;;;;;;;7.38;3.53;;;6.40;99.90;;;;;;5032652;28;20057;-86
2023/12/14 06:40:16;;;;;;;7.57;4.20;;;6.70;99.90;;;;;;5014073;28;20503;-85
2023/12/14 06:42:42;;;;;;;8.27;3.78;;;6.90;99.90;;;;;;5031607;28;20307;-86
2023/12/14 06:45:10;;;;;;;7.93;4.55;;;6.60;99.90;;;;;;5031672;28;20108;-90
2023/12/14 06:47:35;;;;;;;8.52;4.35;;;6.90;99.90;;;;;;5031569;28;20090;-85
2023/12/14 06:50:01;;;;;;;9.07;4.50;;;7.30;99.90;;;;;;5031351;28;20470;-85
2023/12/14 06:52:26;;;;;;;12.68;5.20;;;7.90;99.90;;;;;;5031397;28;20018;-84
2023/12/14 06:54:52;;;;;;;9.20;4.10;;;6.80;99.90;;;;;;5032305;28;20071;-85
2023/12/14 06:57:18;;;;;;;7.15;3.90;;;7.10;99.90;;;;;;5032161;28;20025;-85
2023/12/14 06:59:44;;;;;;;5.57;2.95;;;6.80;99.90;;;;;;5031281;28;20425;-90
2023/12/14 07:02:09;;;;;;;3.70;2.55;;;6.70;99.90;;;;;;5031494;28;20097;-87
2023/12/14 07:04:35;;;;;;;7.93;3.05;;;7.00;99.90;;;;;;5031208;28;20029;-87
2023/12/14 07:07:01;;;;;;;7.30;3.15;;;6.80;99.90;;;;;;5031262;28;20033;-85
2023/12/14 07:09:26;;;;;;;8.85;3.63;;;6.80;99.90;;;;;;5031442;28;20035;-84
2023/12/14 07:11:52;;;;;;;8.60;3.10;;;8.70;99.90;;;;;;5032160;28;20029;-88
2023/12/14 07:14:18;;;;;;;4.10;2.70;;;7.00;99.90;;;;;;5031240;28;20436;-85
2023/12/14 07:16:44;;;;;;;5.40;3.40;;;6.80;99.90;;;;;;5031187;28;20259;-91
2023/12/14 07:19:11;;;;;;;5.05;3.20;;;8.30;99.90;;;;;;5030904;28;20499;-90
2023/12/14 07:21:36;;;;;;;5.22;2.80;;;8.50;99.90;;;;;;5031071;28;20022;-84
2023/12/14 07:24:02;;;;;;;6.32;3.00;;;7.00;99.90;;;;;;5030749;28;20090;-90
2023/12/14 07:26:28;;;;;;;10.77;3.53;;;7.10;99.90;;;;;;5030883;28;20432;-85
2023/12/14 07:28:54;;;;;;;4.47;3.03;;;7.30;99.90;;;;;;5031746;28;20430;-85
2023/12/14 07:31:20;;;;;;;6.20;2.35;;;7.00;99.90;;;;;;5031582;28;20017;-87
2023/12/14 07:33:46;;;;;;;6.78;2.80;;;7.30;99.90;;;;;;5030801;28;20034;-84
2023/12/14 07:36:12;;;;;;;7.68;3.03;;;7.10;99.90;;;;;;5030740;28;20079;-91
2023/12/14 07:38:38;;;;;;;6.85;2.90;;;7.30;99.90;;;;;;5030698;28;20038;-85
2023/12/14 07:41:04;;;;;;;5.13;2.42;;;7.20;99.90;;;;;;5012672;28;20028;-91
2023/12/14 07:43:30;;;;;;;6.95;2.75;;;7.10;99.90;;;;;;5012832;28;20034;-87
2023/12/14 07:45:58;;;;;;;3.72;2.58;;;7.20;99.90;;;;;;5031584;28;20071;-85
2023/12/14 07:48:23;;;;;;;6.50;2.70;;;7.70;99.90;;;;;;5012881;28;20025;-90
2023/12/14 07:50:49;;;;;;;3.70;2.60;;;6.90;99.90;;;;;;5030545;28;20116;-84
2023/12/14 07:53:14;;;;;;;6.18;3.00;;;7.20;99.90;;;;;;5030568;28;20045;-85
2023/12/14 07:55:40;;;;;;;10.35;2.80;;;7.30;99.90;;;;;;5012761;28;20018;-89
2023/12/14 07:58:06;;;;;;;5.45;3.60;;;8.10;99.90;;;;;;5030269;28;20033;-91
2023/12/14 08:00:31;;;;;;;9.30;3.35;;;7.20;99.90;;;;;;5030446;28;20017;-89
2023/12/14 08:02:57;;;;;;;6.18;2.78;;;7.00;99.90;;;;;;5012609;28;20029;-84
2023/12/14 08:05:23;;;;;;;7.88;2.88;;;9.20;99.90;;;;;;5031244;28;20486;-90
2023/12/14 08:07:52;;;;;;;7.00;2.60;;;7.90;99.90;;;;;;5030300;28;20029;-85
2023/12/14 08:10:17;;;;;;;10.43;2.65;;;6.90;99.90;;;;;;5030177;28;20025;-90
2023/12/14 08:12:43;;;;;;;8.10;2.50;;;7.10;99.90;;;;;;5012473;28;20039;-91
2023/12/14 08:15:09;;;;;;;11.57;2.80;;;6.90;99.90;;;;;;5030216;28;20115;-91
2023/12/14 08:17:35;;;;;;;4.13;2.60;;;7.20;99.90;;;;;;5029835;28;20025;-85
2023/12/14 08:20:01;;;;;;;6.00;2.67;;;7.70;99.90;;;;;;5029978;28;20124;-85
2023/12/14 08:22:26;;;;;;;4.93;2.70;;;7.10;99.90;;;;;;5030860;28;20066;-87
2023/12/14 08:24:52;;;;;;;7.03;2.78;;;7.50;99.90;;;;;;5029705;28;20055;-85
2023/12/14 08:27:17;;;;;;;11.13;2.95;;;8.20;99.90;;;;;;5029942;28;20330;-86
2023/12/14 08:29:45;;;;;;;8.35;2.92;;;8.80;99.90;;;;;;5030025;28;20405;-84
2023/12/14 08:32:10;;;;;;;8.10;3.08;;;6.90;99.90;;;;;;5030047;28;20049;-89
2023/12/14 08:34:36;;;;;;;6.18;2.75;;;7.60;99.90;;;;;;5012394;28;20049;-86
2023/12/14 08:37:02;;;;;;;5.20;2.60;;;8.50;99.90;;;;;;5035498;28;20466;-85
2023/12/14 08:39:28;;;;;;;5.07;2.65;;;7.20;99.90;;;;;;5018374;28;20116;-86
2023/12/14 08:41:54;;;;;;;6.50;2.60;;;7.70;99.90;;;;;;5037313;28;20445;-86
2023/12/14 08:44:19;;;;;;;5.95;2.72;;;7.10;99.90;;;;;;5035999;28;20486;-85
2023/12/14 08:46:46;;;;;;;7.75;2.72;;;7.30;99.90;;;;;;5029512;28;20100;-91
2023/12/14 08:49:13;;;;;;;4.28;2.35;;;9.00;99.90;;;;;;5029602;28;20021;-86
2023/12/14 08:51:39;;;;;;;7.57;2.72;;;7.50;99.90;;;;;;5029416;28;20029;-89
2023/12/14 08:54:05;;;;;;;4.95;2.45;;;8.90;99.90;;;;;;5029458;28;20018;-88
2023/12/14 08:56:31;;;;;;;6.75;2.70;;;7.40;99.90;;;;;;5029602;28;20406;-86
2023/12/14 08:58:58;;;;;;;5.40;2.70;;;8.90;99.90;;;;;;5012401;28;20044;-85
2023/12/14 09:01:25;;;;;;;5.53;2.72;;;8.30;99.90;;;;;;5029593;28;20029;-89
2023/12/14 09:03:51;;;;;;;10.25;2.60;;;7.50;99.90;;;;;;5029150;28;20482;-85
2023/12/14 09:06:17;;;;;;;3.72;2.65;;;7.70;99.90;;;;;;5029193;28;20036;-86
2023/12/14 09:08:44;;;;;;;10.82;2.90;;;7.80;99.90;;;;;;5011574;28;20378;-89
2023/12/14 09:11:10;;;;;;;6.35;2.65;;;8.40;99.90;;;;;;5029235;28;20025;-85
2023/12/14 09:13:35;;;;;;;5.00;2.55;;;8.10;99.90;;;;;;5029213;28;20081;-86
2023/12/14 09:16:01;;;;;;;6.05;2.75;;;8.60;99.90;;;;;;5029053;28;20022;-84
2023/12/14 09:18:27;;;;;;;6.90;2.88;;;8.20;99.90;;;;;;5029782;28;20393;-85
2023/12/14 09:20:52;;;;;;;4.85;2.47;;;8.00;99.90;;;;;;5029128;28;20052;-85
2023/12/14 09:23:19;;;;;;;7.60;2.70;;;7.90;99.90;;;;;;5029145;28;20489;-85
2023/12/14 09:25:45;;;;;;;8.75;2.80;;;8.00;99.90;;;;;;5028792;28;20033;-85
2023/12/14 09:28:10;;;;;;;6.97;3.13;;;8.40;99.90;;;;;;5028896;28;20032;-86
2023/12/14 09:30:36;;;;;;;10.00;2.80;;;8.20;99.90;;;;;;5028942;28;20033;-86
2023/12/14 09:33:02;;;;;;;8.13;3.08;;;9.20;99.90;;;;;;5028885;28;20397;-88
2023/12/14 09:35:27;;;;;;;7.57;3.28;;;8.10;99.90;;;;;;5029774;28;20033;-85
2023/12/14 09:37:53;;;;;;;7.15;3.25;;;8.30;99.90;;;;;;5028822;28;20048;-85
2023/12/14 09:40:19;;;;;;;6.97;3.35;;;9.20;99.90;;;;;;5028862;28;20017;-86
2023/12/14 09:42:45;;;;;;;8.52;3.30;;;8.30;99.90;;;;;;5028784;28;20025;-85
2023/12/14 09:45:11;;;;;;;5.57;2.83;;;9.70;99.90;;;;;;5028806;28;20026;-85
2023/12/14 09:47:37;;;;;;;7.22;2.90;;;8.50;99.90;;;;;;5028851;28;20021;-87
2023/12/14 09:50:05;;;;;;;5.30;2.75;;;8.60;99.90;;;;;;5028925;28;20029;-88
2023/12/14 09:52:33;;;;;;;6.88;3.20;;;8.40;99.90;;;;;;5029689;28;20052;-86
2023/12/14 09:54:59;;;;;;;7.85;3.13;;;8.70;99.90;;;;;;5029421;28;20466;-84
2023/12/14 09:57:25;;;;;;;10.65;4.15;;;8.60;99.90;;;;;;5028655;28;20057;-85
2023/12/14 09:59:55;;;;;;;11.57;3.80;;;8.90;99.90;;;;;;5011013;28;20033;-85
2023/12/14 10:02:27;;;;;;;8.90;3.47;;;9.50;99.90;;;;;;5028676;28;20425;-84
2023/12/14 10:04:53;;;;;;;8.18;3.97;;;8.60;99.90;;;;;;5028687;28;20112;-85
2023/12/14 10:07:21;;;;;;;8.10;3.58;;;9.10;99.90;;;;;;5028643;28;20024;-84
2023/12/14 10:09:47;;;;;;;9.25;4.68;;;9.00;99.90;;;;;;5028556;28;20125;-84
2023/12/14 10:12:13;;;;;;;8.52;4.13;;;9.40;99.90;;;;;;5031886;28;20108;-85
2023/12/14 10:14:41;;;;;;;7.72;2.80;;;8.80;99.90;;;;;;5032331;28;20072;-86
2023/12/14 10:17:17;;;;;;;7.03;2.95;;;8.70;99.90;;;;;;5014406;28;20028;-86
2023/12/14 10:19:44;;;;;;;8.13;3.17;;;8.80;99.90;;;;;;5032197;28;20112;-85
2023/12/14 10:22:11;;;;;;;5.97;2.75;;;9.20;99.90;;;;;;5032056;28;20018;-85
2023/12/14 10:24:36;;;;;;;6.05;3.25;;;9.60;99.90;;;;;;5032214;28;20041;-86
2023/12/14 10:27:08;;;;;;;7.65;2.83;;;10.00;99.90;;;;;;5032926;28;20091;-88
2023/12/14 10:29:35;;;;;;;9.35;3.28;;;10.30;99.90;;;;;;5032297;28;20025;-85
2023/12/14 10:32:06;;;;;;;5.03;3.03;;;10.00;99.90;;;;;;5032729;28;20079;-85
2023/12/14 10:34:35;;;;;;;4.78;3.08;;;8.90;99.90;;;;;;5032785;28;20017;-86
2023/12/14 10:37:04;;;;;;;6.07;2.80;;;9.10;99.90;;;;;;5032701;28;20029;-84
2023/12/14 10:39:31;;;;;;;7.18;3.25;;;9.10;99.90;;;;;;5032811;28;20047;-91
2023/12/14 10:41:58;;;;;;;6.95;3.17;;;9.60;99.90;;;;;;5031748;28;20133;-85
2023/12/14 10:44:27;;;;;;;7.72;3.45;;;10.10;99.90;;;;;;5031905;28;20021;-85
2023/12/14 10:46:58;;;;;;;7.07;3.08;;;9.60;99.90;;;;;;5031589;28;20022;-89
2023/12/14 10:49:25;;;;;;;6.20;3.30;;;10.10;99.90;;;;;;5031595;28;20029;-86
2023/12/14 10:51:54;;;;;;;9.23;3.22;;;9.50;99.90;;;;;;5031398;28;20044;-85
2023/12/14 10:54:21;;;;;;;8.52;3.03;;;10.60;99.90;;;;;;5031465;28;20021;-85
2023/12/14 10:56:46;;;;;;;7.13;3.25;;;10.70;99.90;;;;;;5031420;28;20084;-84
2023/12/14 10:59:17;;;;;;;9.13;3.33;;;10.20;99.90;;;;;;5031254;28;20037;-91
2023/12/14 11:01:42;;;;;;;5.63;2.50;;;10.60;99.90;;;;;;5013743;28;20022;-84
2023/12/14 11:04:13;;;;;;;7.28;3.00;;;10.40;99.90;;;;;;5031338;28;20032;-85
2023/12/14 11:06:40;;;;;;;9.45;3.28;;;9.40;99.90;;;;;;5031134;28;20021;-83
2023/12/14 11:09:07;;;;;;;6.05;2.65;;;10.10;99.90;;;;;;5032245;28;20124;-85
2023/12/14 11:11:53;;;;;;;10.15;3.03;;;10.10;99.90;;;;;;5032123;28;20100;-86
2023/12/14 11:14:19;;;;;;;8.35;3.30;;;9.90;99.90;;;;;;5031109;28;20025;-85
2023/12/14 11:16:46;;;;;;;4.65;2.92;;;9.80;99.90;;;;;;5031014;28;20025;-86
2023/12/14 11:19:39;;;;;;;6.78;3.15;;;10.30;99.90;;;;;;5013281;28;20037;-89
2023/12/14 11:22:07;;;;;;;10.65;3.80;;;11.10;99.90;;;;;;5028449;28;20397;-85
2023/12/14 11:24:36;;;;;;;;;;;9.30;99.90;;;;;;5032249;28;20037;-85
2023/12/14 11:27:06;;;;;;;;;;;10.00;99.90;;;;;;5031519;28;19912;-87
2023/12/14 11:29:31;;;;;;;6.78;3.90;;;9.40;99.90;;;;;;5013143;28;20285;-85
2023/12/14 11:31:58;;;;;;;10.68;3.75;;;10.80;99.90;;;;;;5030874;28;20359;-88
2023/12/14 11:34:27;;;;;;;6.85;3.50;;;10.60;99.90;;;;;;5030893;28;20021;-85
2023/12/14 11:36:54;;;;;;;7.10;3.35;;;10.70;99.90;;;;;;5031098;28;20025;-86
2023/12/14 11:39:21;;;;;;;6.55;2.78;;;10.40;99.90;;;;;;5033689;28;20128;-85
2023/12/14 11:42:10;;;;;;;6.55;2.67;;;10.50;99.90;;;;;;5015598;28;20034;-85
2023/12/14 11:44:36;;;;;;;5.10;2.72;;;9.60;99.90;;;;;;5017706;28;20036;-85
2023/12/14 11:47:02;;;;;;;5.63;2.85;;;10.40;99.90;;;;;;5030945;28;20044;-88
2023/12/14 11:49:28;;;;;;;7.30;3.10;;;9.60;99.90;;;;;;5030614;28;20706;-85
2023/12/14 11:51:56;;;;;;;8.43;2.80;;;11.10;99.90;;;;;;5030522;28;20025;-90
2023/12/14 11:54:22;;;;;;;5.22;2.70;;;11.10;99.90;;;;;;5030350;28;20052;-85
2023/12/14 11:56:50;;;;;;;5.75;2.80;;;10.50;99.90;;;;;;5012568;28;20030;-89
2023/12/14 11:59:17;;;;;;;15.93;3.07;;;10.00;99.90;;;;;;5030500;28;20041;-85
2023/12/14 12:02:03;;;;;;;6.35;2.80;;;10.80;99.90;;;;;;5030200;28;20269;-84
2023/12/14 12:04:29;;;;;;;5.53;3.08;;;10.80;99.90;;;;;;5029682;28;20116;-87
2023/12/14 12:07:03;;;;;;;5.75;3.00;;;10.50;99.90;;;;;;5029964;28;20545;-85
2023/12/14 12:09:42;;;;;;;9.57;3.33;;;9.70;99.90;;;;;;5030058;28;20508;-85
2023/12/14 12:12:12;;;;;;;8.07;3.38;;;9.80;99.90;;;;;;5031098;28;20023;-85
2023/12/14 12:14:39;;;;;;;6.55;3.00;;;11.00;99.90;;;;;;5030654;28;20029;-85
2023/12/14 12:17:06;;;;;;;8.95;3.30;;;11.40;99.90;;;;;;5012742;28;20068;-85
2023/12/14 12:19:36;;;;;;;4.75;3.05;;;9.90;99.90;;;;;;5029838;28;20038;-85
2023/12/14 12:22:02;;;;;;;7.35;2.70;;;11.40;99.90;;;;;;5012144;28;20535;-85
2023/12/14 12:24:28;;;;;;;8.70;3.50;;;10.00;99.90;;;;;;5029663;28;20513;-85
2023/12/14 12:26:55;;;;;;;8.85;3.63;;;11.20;99.90;;;;;;5029752;28;20505;-91
2023/12/14 12:29:21;;;;;;;9.10;4.03;;;11.50;99.90;;;;;;5029771;28;20028;-86
2023/12/14 12:31:46;;;;;;;6.22;3.13;;;10.70;99.90;;;;;;5029655;28;20098;-85
2023/12/14 12:34:12;;;;;;;7.75;3.40;;;11.20;99.90;;;;;;5029307;28;20100;-84
2023/12/14 12:36:38;;;;;;;9.00;3.55;;;11.60;99.90;;;;;;5030532;28;20021;-86
2023/12/14 12:39:05;;;;;;;6.03;2.95;;;11.30;99.90;;;;;;5029546;28;20048;-86
2023/12/14 12:41:36;;;;;;;9.80;3.20;;;11.80;99.90;;;;;;5029567;28;20287;-85
2023/12/14 12:44:05;;;;;;;5.25;2.90;;;10.30;99.90;;;;;;5029608;28;20033;-86
2023/12/14 12:46:35;;;;;;;6.22;3.38;;;10.30;99.90;;;;;;5029587;28;20452;-85
2023/12/14 12:49:04;;;;;;;9.40;3.58;;;10.60;99.90;;;;;;5029410;28;20029;-85
2023/12/14 12:51:31;;;;;;;6.15;3.03;;;10.50;99.90;;;;;;5029367;28;20152;-85